Ribeira do Pombal, Brazil
Current Conditions -  °F | °C
As of 4:00 PM on Sunday 21 Dec 2014 (Local Time) from SBUF Reporting Station
Few Clouds Few Clouds  
Wind Chill: 99°   Ceiling: Unl
Heat Index: 99°   Visibility: 6mi
Dew Point: 59°   Wind: 7mph
Humidity: 27%   Direction: 140°SE
Pressure: 29.85"   Gusts: NA
Location:  10.83°S, 38.54°W
Report Text: SBUF 211900Z 14006KT 9999 FEW022 37/15 Q1011
Loading
Personal Weather Stations






























Interactive Weather Map New forecast layout! Learn more

10-Day Weather Forecast

Advertisements
Track Severe Weather on mobile